Terminal Aerodrome Forecast
Issued by NWS Charleston, WV

Current Version | Previous Version | Graphics & Text | Print | Product List | Glossary On
Versions: 1 2 3 4 5 6 7 8 9 10 11 12 13 14 15 16 17 18 19 20 21 22 23 24
000
FTUS41 KRLX 312200 AAB
TAFEKN
TAF AMD
KEKN 312205Z 3122/0118 30015G25KT P6SM BKN100
     FM312300 30010G20KT P6SM BKN045
     FM010200 31010G15KT P6SM BKN045
     FM010500 32008KT P6SM SCT250
     FM011200 27004KT P6SM FEW250
     FM011400 28005KT P6SM FEW045=

USA.gov is the U.S. government's official web portal to all federal, state and local government web resources and services.